sensor_id;sensor_type;location;lat;lon;timestamp;P1;durP1;ratioP1;P2;durP2;ratioP2
46941;SDS011;32676;52.630;4.896;2023-02-10T00:01:08;6.53;;;2.00;;
46941;SDS011;32676;52.630;4.896;2023-02-10T00:03:37;16.40;;;2.40;;
46941;SDS011;32676;52.630;4.896;2023-02-10T00:06:04;20.50;;;3.13;;
46941;SDS011;32676;52.630;4.896;2023-02-10T00:08:32;14.98;;;3.53;;
46941;SDS011;32676;52.630;4.896;2023-02-10T00:10:59;19.60;;;2.85;;
46941;SDS011;32676;52.630;4.896;2023-02-10T00:13:27;13.48;;;2.50;;
46941;SDS011;32676;52.630;4.896;2023-02-10T00:15:54;27.20;;;3.30;;
46941;SDS011;32676;52.630;4.896;2023-02-10T00:18:22;17.50;;;2.85;;
46941;SDS011;32676;52.630;4.896;2023-02-10T00:20:50;16.55;;;2.65;;
46941;SDS011;32676;52.630;4.896;2023-02-10T00:23:17;10.77;;;2.10;;
46941;SDS011;32676;52.630;4.896;2023-02-10T00:25:44;19.42;;;4.40;;
46941;SDS011;32676;52.630;4.896;2023-02-10T00:28:10;26.20;;;5.55;;
46941;SDS011;32676;52.630;4.896;2023-02-10T00:30:37;17.20;;;2.70;;
46941;SDS011;32676;52.630;4.896;2023-02-10T00:33:04;12.60;;;2.13;;
46941;SDS011;32676;52.630;4.896;2023-02-10T00:35:31;34.05;;;4.30;;
46941;SDS011;32676;52.630;4.896;2023-02-10T00:37:59;15.88;;;2.25;;
46941;SDS011;32676;52.630;4.896;2023-02-10T00:40:25;26.23;;;4.30;;
46941;SDS011;32676;52.630;4.896;2023-02-10T00:42:51;16.30;;;2.55;;
46941;SDS011;32676;52.630;4.896;2023-02-10T00:45:18;16.85;;;2.28;;
46941;SDS011;32676;52.630;4.896;2023-02-10T00:47:45;19.08;;;3.25;;
46941;SDS011;32676;52.630;4.896;2023-02-10T00:50:14;27.00;;;3.13;;
46941;SDS011;32676;52.630;4.896;2023-02-10T00:52:40;21.85;;;3.72;;
46941;SDS011;32676;52.630;4.896;2023-02-10T00:55:08;8.07;;;2.47;;
46941;SDS011;32676;52.630;4.896;2023-02-10T00:57:34;14.20;;;3.03;;
46941;SDS011;32676;52.630;4.896;2023-02-10T01:00:01;22.13;;;3.28;;
46941;SDS011;32676;52.630;4.896;2023-02-10T01:02:28;11.77;;;1.98;;
46941;SDS011;32676;52.630;4.896;2023-02-10T01:04:54;15.23;;;2.10;;
46941;SDS011;32676;52.630;4.896;2023-02-10T01:07:21;16.13;;;2.85;;
46941;SDS011;32676;52.630;4.896;2023-02-10T01:09:47;29.02;;;3.58;;
46941;SDS011;32676;52.630;4.896;2023-02-10T01:12:15;12.32;;;1.85;;
46941;SDS011;32676;52.630;4.896;2023-02-10T01:14:41;11.05;;;2.42;;
46941;SDS011;32676;52.630;4.896;2023-02-10T01:17:08;17.35;;;2.72;;
46941;SDS011;32676;52.630;4.896;2023-02-10T01:19:35;21.73;;;1.92;;
46941;SDS011;32676;52.630;4.896;2023-02-10T01:22:01;14.48;;;2.72;;
46941;SDS011;32676;52.630;4.896;2023-02-10T01:24:28;16.70;;;3.08;;
46941;SDS011;32676;52.630;4.896;2023-02-10T01:26:54;16.73;;;3.75;;
46941;SDS011;32676;52.630;4.896;2023-02-10T01:29:22;21.42;;;3.15;;
46941;SDS011;32676;52.630;4.896;2023-02-10T01:31:48;13.38;;;2.95;;
46941;SDS011;32676;52.630;4.896;2023-02-10T01:34:15;17.77;;;3.53;;
46941;SDS011;32676;52.630;4.896;2023-02-10T01:36:42;13.52;;;2.40;;
46941;SDS011;32676;52.630;4.896;2023-02-10T01:39:08;12.88;;;2.28;;
46941;SDS011;32676;52.630;4.896;2023-02-10T01:41:35;14.18;;;2.55;;
46941;SDS011;32676;52.630;4.896;2023-02-10T01:44:02;19.20;;;2.92;;
46941;SDS011;32676;52.630;4.896;2023-02-10T01:46:32;20.77;;;3.60;;
46941;SDS011;32676;52.630;4.896;2023-02-10T01:49:00;10.25;;;3.92;;
46941;SDS011;32676;52.630;4.896;2023-02-10T01:51:31;10.15;;;3.25;;
46941;SDS011;32676;52.630;4.896;2023-02-10T01:54:03;15.48;;;2.15;;
46941;SDS011;32676;52.630;4.896;2023-02-10T01:56:32;13.75;;;2.80;;
46941;SDS011;32676;52.630;4.896;2023-02-10T01:58:59;24.73;;;4.68;;
46941;SDS011;32676;52.630;4.896;2023-02-10T02:01:25;13.45;;;1.65;;
46941;SDS011;32676;52.630;4.896;2023-02-10T02:03:53;16.80;;;2.55;;
46941;SDS011;32676;52.630;4.896;2023-02-10T02:06:20;12.10;;;2.70;;
46941;SDS011;32676;52.630;4.896;2023-02-10T02:08:47;7.18;;;1.67;;
46941;SDS011;32676;52.630;4.896;2023-02-10T02:11:24;16.50;;;1.98;;
46941;SDS011;32676;52.630;4.896;2023-02-10T02:14:02;10.98;;;1.85;;
46941;SDS011;32676;52.630;4.896;2023-02-10T02:16:41;12.82;;;2.63;;
46941;SDS011;32676;52.630;4.896;2023-02-10T02:19:27;24.77;;;3.58;;
46941;SDS011;32676;52.630;4.896;2023-02-10T02:22:29;12.85;;;1.92;;
46941;SDS011;32676;52.630;4.896;2023-02-10T02:25:13;14.10;;;3.13;;
46941;SDS011;32676;52.630;4.896;2023-02-10T02:27:53;14.40;;;3.35;;
46941;SDS011;32676;52.630;4.896;2023-02-10T02:30:40;19.13;;;3.40;;
46941;SDS011;32676;52.630;4.896;2023-02-10T02:33:14;16.92;;;1.77;;
46941;SDS011;32676;52.630;4.896;2023-02-10T02:35:45;10.45;;;2.72;;
46941;SDS011;32676;52.630;4.896;2023-02-10T02:38:18;16.15;;;3.80;;
46941;SDS011;32676;52.630;4.896;2023-02-10T02:40:45;20.83;;;4.18;;
46941;SDS011;32676;52.630;4.896;2023-02-10T02:43:11;10.52;;;3.33;;
46941;SDS011;32676;52.630;4.896;2023-02-10T02:45:40;14.25;;;2.28;;
46941;SDS011;32676;52.630;4.896;2023-02-10T02:48:20;8.13;;;1.80;;
46941;SDS011;32676;52.630;4.896;2023-02-10T02:51:09;19.38;;;1.95;;
46941;SDS011;32676;52.630;4.896;2023-02-10T02:53:42;13.70;;;2.30;;
46941;SDS011;32676;52.630;4.896;2023-02-10T02:56:18;11.60;;;2.25;;
46941;SDS011;32676;52.630;4.896;2023-02-10T02:58:53;8.80;;;2.65;;
46941;SDS011;32676;52.630;4.896;2023-02-10T03:01:23;19.40;;;3.97;;
46941;SDS011;32676;52.630;4.896;2023-02-10T03:03:57;12.70;;;3.33;;
46941;SDS011;32676;52.630;4.896;2023-02-10T03:06:24;20.75;;;2.80;;
46941;SDS011;32676;52.630;4.896;2023-02-10T03:08:50;24.55;;;3.20;;
46941;SDS011;32676;52.630;4.896;2023-02-10T03:11:17;17.63;;;2.10;;
46941;SDS011;32676;52.630;4.896;2023-02-10T03:13:44;16.13;;;2.15;;
46941;SDS011;32676;52.630;4.896;2023-02-10T03:16:10;10.77;;;3.22;;
46941;SDS011;32676;52.630;4.896;2023-02-10T03:18:37;14.35;;;2.88;;
46941;SDS011;32676;52.630;4.896;2023-02-10T03:21:05;11.65;;;3.42;;
46941;SDS011;32676;52.630;4.896;2023-02-10T03:23:31;6.88;;;2.05;;
46941;SDS011;32676;52.630;4.896;2023-02-10T03:25:58;16.08;;;2.15;;
46941;SDS011;32676;52.630;4.896;2023-02-10T03:28:25;15.68;;;1.88;;
46941;SDS011;32676;52.630;4.896;2023-02-10T03:30:52;10.05;;;2.28;;
46941;SDS011;32676;52.630;4.896;2023-02-10T03:33:18;13.35;;;2.08;;
46941;SDS011;32676;52.630;4.896;2023-02-10T03:35:45;13.18;;;1.80;;
46941;SDS011;32676;52.630;4.896;2023-02-10T03:38:13;10.32;;;2.80;;
46941;SDS011;32676;52.630;4.896;2023-02-10T03:40:41;12.57;;;2.70;;
46941;SDS011;32676;52.630;4.896;2023-02-10T03:43:07;14.85;;;1.88;;
46941;SDS011;32676;52.630;4.896;2023-02-10T03:45:34;32.90;;;3.63;;
46941;SDS011;32676;52.630;4.896;2023-02-10T03:48:00;6.45;;;1.63;;
46941;SDS011;32676;52.630;4.896;2023-02-10T03:50:27;17.75;;;2.15;;
46941;SDS011;32676;52.630;4.896;2023-02-10T03:52:53;14.00;;;3.03;;
46941;SDS011;32676;52.630;4.896;2023-02-10T03:55:21;11.80;;;2.78;;
46941;SDS011;32676;52.630;4.896;2023-02-10T03:57:48;25.27;;;5.15;;
46941;SDS011;32676;52.630;4.896;2023-02-10T04:00:14;6.53;;;2.00;;
46941;SDS011;32676;52.630;4.896;2023-02-10T04:02:41;15.90;;;2.55;;
46941;SDS011;32676;52.630;4.896;2023-02-10T04:05:08;9.57;;;2.38;;
46941;SDS011;32676;52.630;4.896;2023-02-10T04:07:35;22.70;;;4.03;;
46941;SDS011;32676;52.630;4.896;2023-02-10T04:10:01;16.60;;;2.70;;
46941;SDS011;32676;52.630;4.896;2023-02-10T04:12:30;16.23;;;2.35;;
46941;SDS011;32676;52.630;4.896;2023-02-10T04:14:57;28.77;;;3.75;;
46941;SDS011;32676;52.630;4.896;2023-02-10T04:17:23;20.88;;;3.45;;
46941;SDS011;32676;52.630;4.896;2023-02-10T04:19:50;27.98;;;3.97;;
46941;SDS011;32676;52.630;4.896;2023-02-10T04:22:17;10.95;;;3.10;;
46941;SDS011;32676;52.630;4.896;2023-02-10T04:24:43;20.63;;;3.65;;
46941;SDS011;32676;52.630;4.896;2023-02-10T04:27:10;18.45;;;2.85;;
46941;SDS011;32676;52.630;4.896;2023-02-10T04:29:38;16.92;;;4.85;;
46941;SDS011;32676;52.630;4.896;2023-02-10T04:32:05;13.45;;;2.30;;
46941;SDS011;32676;52.630;4.896;2023-02-10T04:34:32;15.10;;;2.22;;
46941;SDS011;32676;52.630;4.896;2023-02-10T04:36:59;19.20;;;2.70;;
46941;SDS011;32676;52.630;4.896;2023-02-10T04:39:26;5.88;;;2.42;;
46941;SDS011;32676;52.630;4.896;2023-02-10T04:41:52;17.05;;;3.83;;
46941;SDS011;32676;52.630;4.896;2023-02-10T04:44:18;12.77;;;3.08;;
46941;SDS011;32676;52.630;4.896;2023-02-10T04:46:46;18.48;;;2.60;;
46941;SDS011;32676;52.630;4.896;2023-02-10T04:49:15;11.07;;;2.20;;
46941;SDS011;32676;52.630;4.896;2023-02-10T04:51:41;14.70;;;2.65;;
46941;SDS011;32676;52.630;4.896;2023-02-10T04:54:09;12.40;;;1.88;;
46941;SDS011;32676;52.630;4.896;2023-02-10T04:56:36;13.55;;;1.98;;
46941;SDS011;32676;52.630;4.896;2023-02-10T04:59:02;14.15;;;2.53;;
46941;SDS011;32676;52.630;4.896;2023-02-10T05:01:28;13.18;;;2.72;;
46941;SDS011;32676;52.630;4.896;2023-02-10T05:03:56;20.42;;;2.88;;
46941;SDS011;32676;52.630;4.896;2023-02-10T05:06:23;19.73;;;2.70;;
46941;SDS011;32676;52.630;4.896;2023-02-10T05:08:49;23.20;;;3.65;;
46941;SDS011;32676;52.630;4.896;2023-02-10T05:11:16;17.33;;;2.30;;
46941;SDS011;32676;52.630;4.896;2023-02-10T05:13:43;13.60;;;2.83;;
46941;SDS011;32676;52.630;4.896;2023-02-10T05:16:10;20.08;;;5.68;;
46941;SDS011;32676;52.630;4.896;2023-02-10T05:18:38;21.67;;;3.17;;
46941;SDS011;32676;52.630;4.896;2023-02-10T05:21:07;15.60;;;4.10;;
46941;SDS011;32676;52.630;4.896;2023-02-10T05:23:34;21.77;;;3.78;;
46941;SDS011;32676;52.630;4.896;2023-02-10T05:26:01;17.73;;;2.25;;
46941;SDS011;32676;52.630;4.896;2023-02-10T05:28:28;13.05;;;3.20;;
46941;SDS011;32676;52.630;4.896;2023-02-10T05:30:54;15.45;;;2.65;;
46941;SDS011;32676;52.630;4.896;2023-02-10T05:33:21;17.25;;;2.97;;
46941;SDS011;32676;52.630;4.896;2023-02-10T05:35:47;12.27;;;2.22;;
46941;SDS011;32676;52.630;4.896;2023-02-10T05:38:15;23.67;;;2.92;;
46941;SDS011;32676;52.630;4.896;2023-02-10T05:40:42;11.48;;;2.42;;
46941;SDS011;32676;52.630;4.896;2023-02-10T05:43:08;13.23;;;1.70;;
46941;SDS011;32676;52.630;4.896;2023-02-10T05:45:35;25.30;;;4.00;;
46941;SDS011;32676;52.630;4.896;2023-02-10T05:48:01;24.85;;;2.95;;
46941;SDS011;32676;52.630;4.896;2023-02-10T05:50:28;23.88;;;2.92;;
46941;SDS011;32676;52.630;4.896;2023-02-10T05:52:55;13.80;;;1.75;;
46941;SDS011;32676;52.630;4.896;2023-02-10T05:55:23;30.90;;;4.90;;
46941;SDS011;32676;52.630;4.896;2023-02-10T05:57:50;14.73;;;2.42;;
46941;SDS011;32676;52.630;4.896;2023-02-10T06:00:18;20.65;;;2.72;;
46941;SDS011;32676;52.630;4.896;2023-02-10T06:02:45;13.52;;;3.03;;
46941;SDS011;32676;52.630;4.896;2023-02-10T06:05:11;21.48;;;4.13;;
46941;SDS011;32676;52.630;4.896;2023-02-10T06:07:37;13.23;;;2.67;;
46941;SDS011;32676;52.630;4.896;2023-02-10T06:10:04;24.05;;;4.95;;
46941;SDS011;32676;52.630;4.896;2023-02-10T06:12:33;19.90;;;3.63;;
46941;SDS011;32676;52.630;4.896;2023-02-10T06:14:59;9.98;;;2.65;;
46941;SDS011;32676;52.630;4.896;2023-02-10T06:17:25;16.10;;;3.95;;
46941;SDS011;32676;52.630;4.896;2023-02-10T06:19:52;14.38;;;3.50;;
46941;SDS011;32676;52.630;4.896;2023-02-10T06:22:19;14.10;;;3.13;;
46941;SDS011;32676;52.630;4.896;2023-02-10T06:24:45;15.05;;;3.63;;
46941;SDS011;32676;52.630;4.896;2023-02-10T06:27:12;19.55;;;4.53;;
46941;SDS011;32676;52.630;4.896;2023-02-10T06:29:40;18.45;;;3.83;;
46941;SDS011;32676;52.630;4.896;2023-02-10T06:32:07;16.20;;;4.80;;
46941;SDS011;32676;52.630;4.896;2023-02-10T06:34:33;19.67;;;3.60;;
46941;SDS011;32676;52.630;4.896;2023-02-10T06:37:00;20.67;;;5.35;;
46941;SDS011;32676;52.630;4.896;2023-02-10T06:39:26;19.88;;;2.78;;
46941;SDS011;32676;52.630;4.896;2023-02-10T06:41:52;19.38;;;3.70;;
46941;SDS011;32676;52.630;4.896;2023-02-10T06:44:19;23.38;;;4.70;;
46941;SDS011;32676;52.630;4.896;2023-02-10T06:46:47;15.40;;;3.92;;
46941;SDS011;32676;52.630;4.896;2023-02-10T06:49:13;16.20;;;2.97;;
46941;SDS011;32676;52.630;4.896;2023-02-10T06:51:40;21.95;;;4.15;;
46941;SDS011;32676;52.630;4.896;2023-02-10T06:54:06;12.10;;;3.00;;
46941;SDS011;32676;52.630;4.896;2023-02-10T06:56:33;10.88;;;3.83;;
46941;SDS011;32676;52.630;4.896;2023-02-10T06:58:59;16.48;;;4.55;;
46941;SDS011;32676;52.630;4.896;2023-02-10T07:01:26;29.80;;;4.57;;
46941;SDS011;32676;52.630;4.896;2023-02-10T07:03:54;16.25;;;3.10;;
46941;SDS011;32676;52.630;4.896;2023-02-10T07:06:20;14.73;;;3.03;;
46941;SDS011;32676;52.630;4.896;2023-02-10T07:08:48;13.45;;;2.83;;
46941;SDS011;32676;52.630;4.896;2023-02-10T07:11:15;13.07;;;2.83;;
46941;SDS011;32676;52.630;4.896;2023-02-10T07:13:42;21.05;;;3.95;;
46941;SDS011;32676;52.630;4.896;2023-02-10T07:16:09;13.80;;;3.17;;
46941;SDS011;32676;52.630;4.896;2023-02-10T07:18:39;14.18;;;3.55;;
46941;SDS011;32676;52.630;4.896;2023-02-10T07:21:07;15.70;;;3.05;;
46941;SDS011;32676;52.630;4.896;2023-02-10T07:23:33;16.60;;;3.55;;
46941;SDS011;32676;52.630;4.896;2023-02-10T07:26:00;15.75;;;3.53;;
46941;SDS011;32676;52.630;4.896;2023-02-10T07:28:26;22.05;;;3.78;;
46941;SDS011;32676;52.630;4.896;2023-02-10T07:30:53;26.30;;;4.80;;
46941;SDS011;32676;52.630;4.896;2023-02-10T07:33:19;17.77;;;5.00;;
46941;SDS011;32676;52.630;4.896;2023-02-10T07:35:45;18.25;;;3.42;;
46941;SDS011;32676;52.630;4.896;2023-02-10T07:38:13;12.50;;;2.90;;
46941;SDS011;32676;52.630;4.896;2023-02-10T07:40:40;17.63;;;4.45;;
46941;SDS011;32676;52.630;4.896;2023-02-10T07:43:06;20.55;;;4.20;;
46941;SDS011;32676;52.630;4.896;2023-02-10T07:45:33;26.00;;;4.80;;
46941;SDS011;32676;52.630;4.896;2023-02-10T07:47:59;17.00;;;4.78;;
46941;SDS011;32676;52.630;4.896;2023-02-10T07:50:26;19.70;;;5.10;;
46941;SDS011;32676;52.630;4.896;2023-02-10T07:52:52;23.20;;;4.10;;
46941;SDS011;32676;52.630;4.896;2023-02-10T07:55:20;13.15;;;4.03;;
46941;SDS011;32676;52.630;4.896;2023-02-10T07:57:47;24.88;;;4.68;;
46941;SDS011;32676;52.630;4.896;2023-02-10T08:00:14;16.33;;;3.67;;
46941;SDS011;32676;52.630;4.896;2023-02-10T08:02:41;18.58;;;3.17;;
46941;SDS011;32676;52.630;4.896;2023-02-10T08:05:07;22.85;;;5.93;;
46941;SDS011;32676;52.630;4.896;2023-02-10T08:07:35;22.70;;;3.45;;
46941;SDS011;32676;52.630;4.896;2023-02-10T08:10:02;22.63;;;3.88;;
46941;SDS011;32676;52.630;4.896;2023-02-10T08:12:30;23.98;;;7.43;;
46941;SDS011;32676;52.630;4.896;2023-02-10T08:14:57;29.80;;;9.07;;
46941;SDS011;32676;52.630;4.896;2023-02-10T08:17:24;25.77;;;6.78;;
46941;SDS011;32676;52.630;4.896;2023-02-10T08:19:50;17.10;;;4.30;;
46941;SDS011;32676;52.630;4.896;2023-02-10T08:22:17;21.95;;;4.93;;
46941;SDS011;32676;52.630;4.896;2023-02-10T08:24:43;19.05;;;3.70;;
46941;SDS011;32676;52.630;4.896;2023-02-10T08:27:10;23.42;;;6.75;;
46941;SDS011;32676;52.630;4.896;2023-02-10T08:29:38;19.15;;;5.45;;
46941;SDS011;32676;52.630;4.896;2023-02-10T08:32:04;21.75;;;6.20;;
46941;SDS011;32676;52.630;4.896;2023-02-10T08:34:31;18.38;;;4.35;;
46941;SDS011;32676;52.630;4.896;2023-02-10T08:36:57;13.60;;;5.00;;
46941;SDS011;32676;52.630;4.896;2023-02-10T08:39:24;22.98;;;4.20;;
46941;SDS011;32676;52.630;4.896;2023-02-10T08:41:50;32.15;;;7.55;;
46941;SDS011;32676;52.630;4.896;2023-02-10T08:44:17;28.83;;;7.35;;
46941;SDS011;32676;52.630;4.896;2023-02-10T08:46:44;27.85;;;4.13;;
46941;SDS011;32676;52.630;4.896;2023-02-10T08:49:11;28.63;;;5.07;;
46941;SDS011;32676;52.630;4.896;2023-02-10T08:51:37;18.30;;;4.65;;
46941;SDS011;32676;52.630;4.896;2023-02-10T08:54:05;18.27;;;4.22;;
46941;SDS011;32676;52.630;4.896;2023-02-10T08:56:32;27.80;;;6.07;;
46941;SDS011;32676;52.630;4.896;2023-02-10T08:58:58;19.73;;;4.32;;
46941;SDS011;32676;52.630;4.896;2023-02-10T09:01:25;21.58;;;6.05;;
46941;SDS011;32676;52.630;4.896;2023-02-10T09:03:53;27.63;;;4.95;;
46941;SDS011;32676;52.630;4.896;2023-02-10T09:06:21;28.13;;;6.65;;
46941;SDS011;32676;52.630;4.896;2023-02-10T09:08:50;21.20;;;5.75;;
46941;SDS011;32676;52.630;4.896;2023-02-10T09:11:18;24.98;;;7.13;;
46941;SDS011;32676;52.630;4.896;2023-02-10T09:13:46;22.48;;;5.00;;
46941;SDS011;32676;52.630;4.896;2023-02-10T09:16:13;20.63;;;3.88;;
46941;SDS011;32676;52.630;4.896;2023-02-10T09:18:39;20.60;;;5.18;;
46941;SDS011;32676;52.630;4.896;2023-02-10T09:21:08;15.02;;;4.63;;
46941;SDS011;32676;52.630;4.896;2023-02-10T09:23:34;30.02;;;5.00;;
46941;SDS011;32676;52.630;4.896;2023-02-10T09:26:01;17.80;;;5.80;;
46941;SDS011;32676;52.630;4.896;2023-02-10T09:28:28;19.10;;;6.25;;
46941;SDS011;32676;52.630;4.896;2023-02-10T09:30:54;35.67;;;8.10;;
46941;SDS011;32676;52.630;4.896;2023-02-10T09:33:21;17.73;;;6.03;;
46941;SDS011;32676;52.630;4.896;2023-02-10T09:35:48;23.85;;;5.80;;
46941;SDS011;32676;52.630;4.896;2023-02-10T09:38:16;22.08;;;6.22;;
46941;SDS011;32676;52.630;4.896;2023-02-10T09:40:46;24.55;;;4.97;;
46941;SDS011;32676;52.630;4.896;2023-02-10T09:43:19;22.95;;;5.78;;
46941;SDS011;32676;52.630;4.896;2023-02-10T09:45:58;18.05;;;4.85;;
46941;SDS011;32676;52.630;4.896;2023-02-10T09:48:33;19.23;;;6.45;;
46941;SDS011;32676;52.630;4.896;2023-02-10T09:51:10;54.28;;;8.23;;
46941;SDS011;32676;52.630;4.896;2023-02-10T09:53:43;21.85;;;7.43;;
46941;SDS011;32676;52.630;4.896;2023-02-10T09:56:11;31.58;;;6.40;;
46941;SDS011;32676;52.630;4.896;2023-02-10T09:58:43;23.13;;;7.80;;
46941;SDS011;32676;52.630;4.896;2023-02-10T10:01:13;31.60;;;5.65;;
46941;SDS011;32676;52.630;4.896;2023-02-10T10:03:44;17.25;;;5.05;;
46941;SDS011;32676;52.630;4.896;2023-02-10T10:06:20;14.68;;;4.78;;
46941;SDS011;32676;52.630;4.896;2023-02-10T10:08:56;21.92;;;6.47;;
46941;SDS011;32676;52.630;4.896;2023-02-10T10:11:31;14.60;;;3.85;;
46941;SDS011;32676;52.630;4.896;2023-02-10T10:14:04;23.23;;;3.90;;
46941;SDS011;32676;52.630;4.896;2023-02-10T10:19:23;14.75;;;3.00;;
46941;SDS011;32676;52.630;4.896;2023-02-10T10:22:01;24.00;;;3.58;;
46941;SDS011;32676;52.630;4.896;2023-02-10T10:24:47;13.93;;;3.33;;
46941;SDS011;32676;52.630;4.896;2023-02-10T10:27:24;8.48;;;1.73;;
46941;SDS011;32676;52.630;4.896;2023-02-10T10:29:59;14.32;;;3.40;;
46941;SDS011;32676;52.630;4.896;2023-02-10T10:32:35;17.33;;;3.47;;
46941;SDS011;32676;52.630;4.896;2023-02-10T10:35:11;19.38;;;3.67;;
46941;SDS011;32676;52.630;4.896;2023-02-10T10:37:41;16.00;;;3.15;;
46941;SDS011;32676;52.630;4.896;2023-02-10T10:40:13;9.40;;;2.42;;
46941;SDS011;32676;52.630;4.896;2023-02-10T10:42:43;14.15;;;2.40;;
46941;SDS011;32676;52.630;4.896;2023-02-10T10:45:11;13.48;;;1.85;;
46941;SDS011;32676;52.630;4.896;2023-02-10T10:47:43;21.65;;;3.03;;
46941;SDS011;32676;52.630;4.896;2023-02-10T10:50:13;10.20;;;1.45;;
46941;SDS011;32676;52.630;4.896;2023-02-10T10:52:42;10.07;;;2.40;;
46941;SDS011;32676;52.630;4.896;2023-02-10T10:55:12;15.48;;;3.78;;
46941;SDS011;32676;52.630;4.896;2023-02-10T10:57:44;15.35;;;2.85;;
46941;SDS011;32676;52.630;4.896;2023-02-10T11:00:16;12.68;;;2.78;;
46941;SDS011;32676;52.630;4.896;2023-02-10T11:02:54;13.77;;;2.33;;
46941;SDS011;32676;52.630;4.896;2023-02-10T11:05:24;11.73;;;2.15;;
46941;SDS011;32676;52.630;4.896;2023-02-10T11:07:55;18.05;;;2.70;;
46941;SDS011;32676;52.630;4.896;2023-02-10T11:10:24;16.50;;;2.72;;
46941;SDS011;32676;52.630;4.896;2023-02-10T11:12:54;10.65;;;1.65;;
46941;SDS011;32676;52.630;4.896;2023-02-10T11:15:32;13.35;;;2.55;;
46941;SDS011;32676;52.630;4.896;2023-02-10T11:18:04;10.80;;;1.98;;
46941;SDS011;32676;52.630;4.896;2023-02-10T11:20:33;18.05;;;2.67;;
46941;SDS011;32676;52.630;4.896;2023-02-10T11:23:02;15.18;;;3.00;;
46941;SDS011;32676;52.630;4.896;2023-02-10T11:25:38;15.02;;;3.00;;
46941;SDS011;32676;52.630;4.896;2023-02-10T11:28:05;11.55;;;1.23;;
46941;SDS011;32676;52.630;4.896;2023-02-10T11:30:34;12.60;;;2.45;;
46941;SDS011;32676;52.630;4.896;2023-02-10T11:33:03;31.77;;;4.60;;
46941;SDS011;32676;52.630;4.896;2023-02-10T11:35:31;17.45;;;2.75;;
46941;SDS011;32676;52.630;4.896;2023-02-10T11:38:00;19.90;;;3.80;;
46941;SDS011;32676;52.630;4.896;2023-02-10T11:40:30;10.38;;;2.88;;
46941;SDS011;32676;52.630;4.896;2023-02-10T11:43:14;16.60;;;2.70;;
46941;SDS011;32676;52.630;4.896;2023-02-10T11:45:50;20.58;;;3.25;;
46941;SDS011;32676;52.630;4.896;2023-02-10T11:48:20;17.83;;;4.60;;
46941;SDS011;32676;52.630;4.896;2023-02-10T11:50:48;15.85;;;5.03;;
46941;SDS011;32676;52.630;4.896;2023-02-10T11:53:27;18.35;;;3.33;;
46941;SDS011;32676;52.630;4.896;2023-02-10T11:55:57;23.20;;;3.97;;
46941;SDS011;32676;52.630;4.896;2023-02-10T11:58:37;12.40;;;3.65;;
46941;SDS011;32676;52.630;4.896;2023-02-10T12:01:30;20.45;;;2.63;;
46941;SDS011;32676;52.630;4.896;2023-02-10T12:04:11;18.25;;;2.60;;
46941;SDS011;32676;52.630;4.896;2023-02-10T12:06:48;16.00;;;3.30;;
46941;SDS011;32676;52.630;4.896;2023-02-10T12:09:24;20.73;;;4.38;;
46941;SDS011;32676;52.630;4.896;2023-02-10T12:14:31;17.42;;;5.28;;
46941;SDS011;32676;52.630;4.896;2023-02-10T12:17:17;27.70;;;6.18;;
46941;SDS011;32676;52.630;4.896;2023-02-10T12:19:53;23.75;;;3.78;;
46941;SDS011;32676;52.630;4.896;2023-02-10T12:22:48;27.35;;;4.32;;
46941;SDS011;32676;52.630;4.896;2023-02-10T12:25:35;18.60;;;4.15;;
46941;SDS011;32676;52.630;4.896;2023-02-10T12:28:12;22.92;;;5.25;;
46941;SDS011;32676;52.630;4.896;2023-02-10T12:33:31;29.63;;;5.50;;
46941;SDS011;32676;52.630;4.896;2023-02-10T12:36:10;16.15;;;3.75;;
46941;SDS011;32676;52.630;4.896;2023-02-10T12:38:52;15.10;;;4.28;;
46941;SDS011;32676;52.630;4.896;2023-02-10T12:41:26;18.42;;;4.03;;
46941;SDS011;32676;52.630;4.896;2023-02-10T12:44:05;28.20;;;4.63;;
46941;SDS011;32676;52.630;4.896;2023-02-10T12:46:45;15.60;;;5.57;;
46941;SDS011;32676;52.630;4.896;2023-02-10T12:49:25;15.20;;;4.40;;
46941;SDS011;32676;52.630;4.896;2023-02-10T12:52:06;16.15;;;4.28;;
46941;SDS011;32676;52.630;4.896;2023-02-10T12:54:39;23.42;;;5.72;;
46941;SDS011;32676;52.630;4.896;2023-02-10T12:57:14;30.10;;;7.47;;
46941;SDS011;32676;52.630;4.896;2023-02-10T12:59:48;23.15;;;7.45;;
46941;SDS011;32676;52.630;4.896;2023-02-10T13:02:22;26.75;;;7.35;;
46941;SDS011;32676;52.630;4.896;2023-02-10T13:04:54;20.17;;;6.60;;
46941;SDS011;32676;52.630;4.896;2023-02-10T13:07:25;21.90;;;5.28;;
46941;SDS011;32676;52.630;4.896;2023-02-10T13:09:59;22.38;;;8.05;;
46941;SDS011;32676;52.630;4.896;2023-02-10T13:12:33;20.13;;;4.50;;
46941;SDS011;32676;52.630;4.896;2023-02-10T13:15:06;23.15;;;5.97;;
46941;SDS011;32676;52.630;4.896;2023-02-10T13:17:43;19.60;;;4.55;;
46941;SDS011;32676;52.630;4.896;2023-02-10T13:20:16;16.25;;;4.25;;
46941;SDS011;32676;52.630;4.896;2023-02-10T13:22:57;16.10;;;4.05;;
46941;SDS011;32676;52.630;4.896;2023-02-10T13:25:31;23.08;;;6.82;;
46941;SDS011;32676;52.630;4.896;2023-02-10T13:28:11;22.58;;;6.25;;
46941;SDS011;32676;52.630;4.896;2023-02-10T13:30:51;17.38;;;4.82;;
46941;SDS011;32676;52.630;4.896;2023-02-10T13:33:42;18.05;;;5.30;;
46941;SDS011;32676;52.630;4.896;2023-02-10T13:36:17;21.70;;;6.78;;
46941;SDS011;32676;52.630;4.896;2023-02-10T13:38:56;17.17;;;4.57;;
46941;SDS011;32676;52.630;4.896;2023-02-10T13:41:25;12.57;;;5.13;;
46941;SDS011;32676;52.630;4.896;2023-02-10T13:44:14;21.88;;;5.03;;
46941;SDS011;32676;52.630;4.896;2023-02-10T13:46:45;18.10;;;4.38;;
46941;SDS011;32676;52.630;4.896;2023-02-10T13:49:17;25.50;;;5.30;;
46941;SDS011;32676;52.630;4.896;2023-02-10T13:51:44;17.65;;;4.72;;
46941;SDS011;32676;52.630;4.896;2023-02-10T13:54:22;24.52;;;4.97;;
46941;SDS011;32676;52.630;4.896;2023-02-10T13:56:52;19.70;;;5.30;;
46941;SDS011;32676;52.630;4.896;2023-02-10T13:59:34;12.82;;;5.22;;
46941;SDS011;32676;52.630;4.896;2023-02-10T14:02:09;21.77;;;6.30;;
46941;SDS011;32676;52.630;4.896;2023-02-10T14:04:43;24.85;;;6.38;;
46941;SDS011;32676;52.630;4.896;2023-02-10T14:07:16;25.38;;;6.40;;
46941;SDS011;32676;52.630;4.896;2023-02-10T14:10:00;19.55;;;5.38;;
46941;SDS011;32676;52.630;4.896;2023-02-10T14:12:30;22.73;;;5.60;;
46941;SDS011;32676;52.630;4.896;2023-02-10T14:15:08;19.27;;;5.43;;
46941;SDS011;32676;52.630;4.896;2023-02-10T14:17:51;22.00;;;5.88;;
46941;SDS011;32676;52.630;4.896;2023-02-10T14:20:24;23.08;;;5.00;;
46941;SDS011;32676;52.630;4.896;2023-02-10T14:22:53;22.08;;;5.00;;
46941;SDS011;32676;52.630;4.896;2023-02-10T14:25:27;15.90;;;5.32;;
46941;SDS011;32676;52.630;4.896;2023-02-10T14:27:57;15.30;;;5.72;;
46941;SDS011;32676;52.630;4.896;2023-02-10T14:30:26;26.85;;;4.65;;
46941;SDS011;32676;52.630;4.896;2023-02-10T14:32:57;16.42;;;4.10;;
46941;SDS011;32676;52.630;4.896;2023-02-10T14:35:25;18.50;;;4.03;;
46941;SDS011;32676;52.630;4.896;2023-02-10T14:37:53;15.63;;;3.50;;
46941;SDS011;32676;52.630;4.896;2023-02-10T14:40:22;16.27;;;4.82;;
46941;SDS011;32676;52.630;4.896;2023-02-10T14:42:50;15.05;;;3.15;;
46941;SDS011;32676;52.630;4.896;2023-02-10T14:45:18;15.68;;;4.15;;
46941;SDS011;32676;52.630;4.896;2023-02-10T14:47:47;23.45;;;4.35;;
46941;SDS011;32676;52.630;4.896;2023-02-10T14:50:21;26.42;;;5.70;;
46941;SDS011;32676;52.630;4.896;2023-02-10T14:52:50;19.75;;;4.85;;
46941;SDS011;32676;52.630;4.896;2023-02-10T14:55:27;16.85;;;4.32;;
46941;SDS011;32676;52.630;4.896;2023-02-10T14:57:56;13.27;;;3.58;;
46941;SDS011;32676;52.630;4.896;2023-02-10T15:00:28;18.17;;;3.20;;